sensor_id;sensor_type;location;lat;lon;timestamp;P1;P2;P0
53698;PMS7003;39591;53.952;27.612;2023-02-21T00:01:46;0.5;0.1;0
53698;PMS7003;39591;53.952;27.612;2023-02-21T00:06:08;2.2;0.6;0.2
53698;PMS7003;39591;53.952;27.612;2023-02-21T00:11:58;1.1;0.1;0
53698;PMS7003;39591;53.952;27.612;2023-02-21T00:17:00;0.9;0.2;0.1
53698;PMS7003;39591;53.952;27.612;2023-02-21T00:21:08;1.5;0.7;0.3
53698;PMS7003;39591;53.952;27.612;2023-02-21T00:26:46;1.5;0.3;0
53698;PMS7003;39591;53.952;27.612;2023-02-21T00:31:30;1.9;0.6;0.3
53698;PMS7003;39591;53.952;27.612;2023-02-21T00:37:00;1.1;0.4;0.1
53698;PMS7003;39591;53.952;27.612;2023-02-21T00:41:08;1.4;0.2;0
53698;PMS7003;39591;53.952;27.612;2023-02-21T00:46:20;1.2;0.4;0.3
53698;PMS7003;39591;53.952;27.612;2023-02-21T00:51:48;1.1;0.3;0.2
53698;PMS7003;39591;53.952;27.612;2023-02-21T00:56:08;2.1;0.8;0.4
53698;PMS7003;39591;53.952;27.612;2023-02-21T01:01:58;2.2;0.6;0.3
53698;PMS7003;39591;53.952;27.612;2023-02-21T01:06:20;1.8;0.7;0.4
53698;PMS7003;39591;53.952;27.612;2023-02-21T01:11:20;0.9;0.3;0.2
53698;PMS7003;39591;53.952;27.612;2023-02-21T01:16:44;1.7;0.6;0.3
53698;PMS7003;39591;53.952;27.612;2023-02-21T01:21:30;1.1;0.4;0.2
53698;PMS7003;39591;53.952;27.612;2023-02-21T01:27:00;0.9;0.5;0.3
53698;PMS7003;39591;53.952;27.612;2023-02-21T01:31:08;2.7;1.1;0.6
53698;PMS7003;39591;53.952;27.612;2023-02-21T01:36:18;3;1.1;0.5
53698;PMS7003;39591;53.952;27.612;2023-02-21T01:41:46;1.3;0.5;0.2
53698;PMS7003;39591;53.952;27.612;2023-02-21T01:46:08;1.4;0.5;0.2
53698;PMS7003;39591;53.952;27.612;2023-02-21T01:52:02;2.8;0.4;0.2
53698;PMS7003;39591;53.952;27.612;2023-02-21T01:56:08;3.9;0.6;0.3
53698;PMS7003;39591;53.952;27.612;2023-02-21T02:01:23;1.9;1;0.5
53698;PMS7003;39591;53.952;27.612;2023-02-21T02:06:48;3.1;1;0.6
53698;PMS7003;39591;53.952;27.612;2023-02-21T02:11:37;2.1;1.1;0.6
53698;PMS7003;39591;53.952;27.612;2023-02-21T02:17:01;2.5;0.7;0.2
53698;PMS7003;39591;53.952;27.612;2023-02-21T02:22:19;5.2;1.4;0.8
53698;PMS7003;39591;53.952;27.612;2023-02-21T02:26:16;3.3;0.8;0.4
53698;PMS7003;39591;53.952;27.612;2023-02-21T02:31:51;2.8;1.3;0.6
53698;PMS7003;39591;53.952;27.612;2023-02-21T02:36:09;3;1;0.6
53698;PMS7003;39591;53.952;27.612;2023-02-21T02:42:00;2.3;0.9;0.4
53698;PMS7003;39591;53.952;27.612;2023-02-21T02:46:18;3.6;1.3;0.6
53698;PMS7003;39591;53.952;27.612;2023-02-21T02:51:20;2.8;1.1;0.8
53698;PMS7003;39591;53.952;27.612;2023-02-21T02:56:46;1.7;0.4;0.1
53698;PMS7003;39591;53.952;27.612;2023-02-21T03:01:22;4;1.3;0.6
53698;PMS7003;39591;53.952;27.612;2023-02-21T03:06:50;1.8;0.7;0.5
53698;PMS7003;39591;53.952;27.612;2023-02-21T03:11:32;4.9;1.7;0.9
53698;PMS7003;39591;53.952;27.612;2023-02-21T03:16:10;2.5;0.9;0.4
53698;PMS7003;39591;53.952;27.612;2023-02-21T03:21:49;2;0.9;0.4
53698;PMS7003;39591;53.952;27.612;2023-02-21T03:26:18;2.7;0.7;0.3
53698;PMS7003;39591;53.952;27.612;2023-02-21T03:32:02;1.9;0.9;0.4
53698;PMS7003;39591;53.952;27.612;2023-02-21T03:36:34;2;1.1;0.5
53698;PMS7003;39591;53.952;27.612;2023-02-21T03:41:08;3.9;2.5;1.7
53698;PMS7003;39591;53.952;27.612;2023-02-21T03:46:48;3.7;1.5;0.9
53698;PMS7003;39591;53.952;27.612;2023-02-21T03:51:20;3.1;1.4;0.7
53698;PMS7003;39591;53.952;27.612;2023-02-21T03:57:02;1.4;0.6;0.3
53698;PMS7003;39591;53.952;27.612;2023-02-21T04:01:22;3;1;0.6
53698;PMS7003;39591;53.952;27.612;2023-02-21T04:06:08;2.6;1.2;0.6
53698;PMS7003;39591;53.952;27.612;2023-02-21T04:11:46;2.5;1.1;0.6
53698;PMS7003;39591;53.952;27.612;2023-02-21T04:16:18;2.8;1.6;0.8
53698;PMS7003;39591;53.952;27.612;2023-02-21T04:21:58;3.2;0.9;0.3
53698;PMS7003;39591;53.952;27.612;2023-02-21T04:26:08;2.7;1.2;0.7
53698;PMS7003;39591;53.952;27.612;2023-02-21T04:31:08;3.7;1.5;0.9
53698;PMS7003;39591;53.952;27.612;2023-02-21T04:36:46;3.2;1.6;1
53698;PMS7003;39591;53.952;27.612;2023-02-21T04:41:30;3.1;1.3;0.6
53698;PMS7003;39591;53.952;27.612;2023-02-21T04:47:00;2.9;1.1;0.6
53698;PMS7003;39591;53.952;27.612;2023-02-21T04:51:08;1.9;1;0.5
53698;PMS7003;39591;53.952;27.612;2023-02-21T04:56:08;2.8;0.8;0.5
53698;PMS7003;39591;53.952;27.612;2023-02-21T05:01:58;1.7;1;0.5
53698;PMS7003;39591;53.952;27.612;2023-02-21T05:06:18;1.8;0.9;0.6
53698;PMS7003;39591;53.952;27.612;2023-02-21T05:11:48;3.1;0.9;0.5
53698;PMS7003;39591;53.952;27.612;2023-02-21T05:16:18;1.5;0.7;0.6
53698;PMS7003;39591;53.952;27.612;2023-02-21T05:21:33;1.1;0.6;0.2
53698;PMS7003;39591;53.952;27.612;2023-02-21T05:26:09;3;1.4;0.9
53698;PMS7003;39591;53.952;27.612;2023-02-21T05:31:30;2.5;1;0.5
53698;PMS7003;39591;53.952;27.612;2023-02-21T05:36:56;1.7;0.7;0.4
53698;PMS7003;39591;53.952;27.612;2023-02-21T05:41:08;1.3;0.8;0.5
53698;PMS7003;39591;53.952;27.612;2023-02-21T05:46:31;3;0.6;0.3
53698;PMS7003;39591;53.952;27.612;2023-02-21T05:51:32;3.3;1;0.5
53698;PMS7003;39591;53.952;27.612;2023-02-21T05:56:08;5.4;2.2;1.4
53698;PMS7003;39591;53.952;27.612;2023-02-21T06:01:56;3.4;0.7;0.5
53698;PMS7003;39591;53.952;27.612;2023-02-21T06:06:32;3.9;1.6;1
53698;PMS7003;39591;53.952;27.612;2023-02-21T06:11:46;2;1;0.6
53698;PMS7003;39591;53.952;27.612;2023-02-21T06:16:46;3.7;1.8;1
53698;PMS7003;39591;53.952;27.612;2023-02-21T06:21:18;2.6;1.3;0.7
53698;PMS7003;39591;53.952;27.612;2023-02-21T06:26:58;4.3;1.4;0.8
53698;PMS7003;39591;53.952;27.612;2023-02-21T06:31:28;3.3;1.7;0.7
53698;PMS7003;39591;53.952;27.612;2023-02-21T06:36:34;3.5;1.3;0.7
53698;PMS7003;39591;53.952;27.612;2023-02-21T06:41:56;3;1.3;0.5
53698;PMS7003;39591;53.952;27.612;2023-02-21T06:46:30;3.3;1.5;0.8
53698;PMS7003;39591;53.952;27.612;2023-02-21T06:51:33;3.4;1;0.5
53698;PMS7003;39591;53.952;27.612;2023-02-21T06:56:18;2.6;0.9;0.4
53698;PMS7003;39591;53.952;27.612;2023-02-21T07:01:34;2.4;1.1;0.8
53698;PMS7003;39591;53.952;27.612;2023-02-21T07:07:00;2.3;1.2;0.6
53698;PMS7003;39591;53.952;27.612;2023-02-21T07:11:18;2.1;1;0.6
53698;PMS7003;39591;53.952;27.612;2023-02-21T07:16:32;3.6;1.9;1.1
53698;PMS7003;39591;53.952;27.612;2023-02-21T07:21:18;2.9;1.2;0.8
53698;PMS7003;39591;53.952;27.612;2023-02-21T07:26:46;3.8;1.5;1.1
53698;PMS7003;39591;53.952;27.612;2023-02-21T07:31:59;1.6;0.6;0.3
53698;PMS7003;39591;53.952;27.612;2023-02-21T07:36:18;2;1.2;0.7
53698;PMS7003;39591;53.952;27.612;2023-02-21T07:41:44;2.3;0.9;0.5
53698;PMS7003;39591;53.952;27.612;2023-02-21T07:46:44;1.9;0.8;0.5
53698;PMS7003;39591;53.952;27.612;2023-02-21T07:51:32;2;1;0.5
53698;PMS7003;39591;53.952;27.612;2023-02-21T07:57:03;2.1;0.9;0.5
53698;PMS7003;39591;53.952;27.612;2023-02-21T08:01:21;1.3;0.6;0.5
53698;PMS7003;39591;53.952;27.612;2023-02-21T08:06:32;2;1.1;0.7
53698;PMS7003;39591;53.952;27.612;2023-02-21T08:11:18;2.3;1.2;0.7
53698;PMS7003;39591;53.952;27.612;2023-02-21T08:16:44;1.6;0.8;0.5
53698;PMS7003;39591;53.952;27.612;2023-02-21T08:22:00;3.6;1.9;1.4
53698;PMS7003;39591;53.952;27.612;2023-02-21T08:26:20;4.1;2.5;1.6
53698;PMS7003;39591;53.952;27.612;2023-02-21T08:31:44;3.6;2.5;2
53698;PMS7003;39591;53.952;27.612;2023-02-21T08:36:29;5.6;4.3;3.1
53698;PMS7003;39591;53.952;27.612;2023-02-21T08:41:46;2.9;1.7;1.3
53698;PMS7003;39591;53.952;27.612;2023-02-21T08:47:02;2.3;1;0.8
53698;PMS7003;39591;53.952;27.612;2023-02-21T08:51:32;1.5;1;0.5
53698;PMS7003;39591;53.952;27.612;2023-02-21T08:56:46;0.6;0.1;0.1
53698;PMS7003;39591;53.952;27.612;2023-02-21T09:01:34;0.7;0.1;0.1
53698;PMS7003;39591;53.952;27.612;2023-02-21T09:06:32;0.8;0.2;0.1
53698;PMS7003;39591;53.952;27.612;2023-02-21T09:12:02;0.5;0.1;0
53698;PMS7003;39591;53.952;27.612;2023-02-21T09:16:18;0.5;0.1;0
53698;PMS7003;39591;53.952;27.612;2023-02-21T09:21:45;0.2;0.1;0
53698;PMS7003;39591;53.952;27.612;2023-02-21T09:26:36;0.4;0;0
53698;PMS7003;39591;53.952;27.612;2023-02-21T09:31:48;0;0;0
53698;PMS7003;39591;53.952;27.612;2023-02-21T09:37:03;0.1;0;0
53698;PMS7003;39591;53.952;27.612;2023-02-21T09:41:09;0.5;0.1;0
53698;PMS7003;39591;53.952;27.612;2023-02-21T09:46:47;0;0;0
53698;PMS7003;39591;53.952;27.612;2023-02-21T09:51:32;0.1;0;0
53698;PMS7003;39591;53.952;27.612;2023-02-21T09:56:46;0.3;0;0
53698;PMS7003;39591;53.952;27.612;2023-02-21T10:02:02;0.3;0;0
53698;PMS7003;39591;53.952;27.612;2023-02-21T10:06:10;0.2;0;0
53698;PMS7003;39591;53.952;27.612;2023-02-21T10:11:36;0.3;0;0
53698;PMS7003;39591;53.952;27.612;2023-02-21T10:16:36;0.3;0;0
53698;PMS7003;39591;53.952;27.612;2023-02-21T10:21:47;1.3;0.3;0.3
53698;PMS7003;39591;53.952;27.612;2023-02-21T10:27:04;3;1.7;1.2
53698;PMS7003;39591;53.952;27.612;2023-02-21T10:31:19;3.2;1.6;1.4
53698;PMS7003;39591;53.952;27.612;2023-02-21T10:36:09;1.3;0.9;0.8
53698;PMS7003;39591;53.952;27.612;2023-02-21T10:41:08;1.3;0.2;0.2
53698;PMS7003;39591;53.952;27.612;2023-02-21T10:46:46;0.4;0.2;0.2
53698;PMS7003;39591;53.952;27.612;2023-02-21T10:52:04;1.4;0.1;0
53698;PMS7003;39591;53.952;27.612;2023-02-21T10:56:35;1;0.7;0.6
53698;PMS7003;39591;53.952;27.612;2023-02-21T11:01:10;1.5;0.6;0.4
53698;PMS7003;39591;53.952;27.612;2023-02-21T11:06:46;1.6;0.7;0.5
53698;PMS7003;39591;53.952;27.612;2023-02-21T11:12:04;0.8;0.4;0.3
53698;PMS7003;39591;53.952;27.612;2023-02-21T11:16:34;0.8;0.3;0.3
53698;PMS7003;39591;53.952;27.612;2023-02-21T11:21:32;2.5;1;0.7
53698;PMS7003;39591;53.952;27.612;2023-02-21T11:26:34;1.5;1.2;1.1
53698;PMS7003;39591;53.952;27.612;2023-02-21T11:31:46;0.4;0.3;0.1
53698;PMS7003;39591;53.952;27.612;2023-02-21T11:37:03;0.4;0.2;0.1
53698;PMS7003;39591;53.952;27.612;2023-02-21T11:41:22;0.7;0.3;0.3
53698;PMS7003;39591;53.952;27.612;2023-02-21T11:46:12;0.7;0.2;0.1
53698;PMS7003;39591;53.952;27.612;2023-02-21T11:51:37;1;0.2;0.1
53698;PMS7003;39591;53.952;27.612;2023-02-21T11:56:41;0.8;0.3;0.2
53698;PMS7003;39591;53.952;27.612;2023-02-21T12:02:11;1.7;1;0.8
53698;PMS7003;39591;53.952;27.612;2023-02-21T12:06:09;2.5;1.9;1.4
53698;PMS7003;39591;53.952;27.612;2023-02-21T12:11:35;0.7;0.4;0.3
53698;PMS7003;39591;53.952;27.612;2023-02-21T12:16:36;0.3;0.2;0.1
53698;PMS7003;39591;53.952;27.612;2023-02-21T12:21:15;0.2;0;0
53698;PMS7003;39591;53.952;27.612;2023-02-21T12:27:07;0.7;0.1;0.1
53698;PMS7003;39591;53.952;27.612;2023-02-21T12:31:39;0;0;0
53698;PMS7003;39591;53.952;27.612;2023-02-21T12:37:16;0.1;0.1;0.1
53698;PMS7003;39591;53.952;27.612;2023-02-21T12:41:26;0.2;0;0
53698;PMS7003;39591;53.952;27.612;2023-02-21T12:46:11;0.2;0.1;0
53698;PMS7003;39591;53.952;27.612;2023-02-21T12:52:08;0.1;0;0
53698;PMS7003;39591;53.952;27.612;2023-02-21T12:56:09;0.2;0;0
53698;PMS7003;39591;53.952;27.612;2023-02-21T13:01:35;0.1;0;0
53698;PMS7003;39591;53.952;27.612;2023-02-21T13:06:24;0.2;0.1;0
53698;PMS7003;39591;53.952;27.612;2023-02-21T13:11:50;0.7;0.2;0.1
53698;PMS7003;39591;53.952;27.612;2023-02-21T13:17:02;1.7;1;0.8
53698;PMS7003;39591;53.952;27.612;2023-02-21T13:21:36;1;0.7;0.6
53698;PMS7003;39591;53.952;27.612;2023-02-21T13:26:25;0.6;0.1;0
53698;PMS7003;39591;53.952;27.612;2023-02-21T13:31:34;0.4;0.2;0.1
53698;PMS7003;39591;53.952;27.612;2023-02-21T13:36:48;0.1;0;0
53698;PMS7003;39591;53.952;27.612;2023-02-21T13:42:04;0.8;0.2;0.1
53698;PMS7003;39591;53.952;27.612;2023-02-21T13:46:25;0.7;0.5;0.4
53698;PMS7003;39591;53.952;27.612;2023-02-21T13:51:08;2.1;1.2;0.9
53698;PMS7003;39591;53.952;27.612;2023-02-21T13:56:42;1.6;1.2;0.9
53698;PMS7003;39591;53.952;27.612;2023-02-21T14:01:47;1.6;1.1;1
53698;PMS7003;39591;53.952;27.612;2023-02-21T14:07:02;2.9;1.9;1.8
53698;PMS7003;39591;53.952;27.612;2023-02-21T14:11:34;2.9;2.2;1.8
53698;PMS7003;39591;53.952;27.612;2023-02-21T14:16:09;3.6;2.5;1.9
53698;PMS7003;39591;53.952;27.612;2023-02-21T14:21:33;4.7;3.6;3
53698;PMS7003;39591;53.952;27.612;2023-02-21T14:26:49;5.3;4.3;3.5
53698;PMS7003;39591;53.952;27.612;2023-02-21T14:32:14;4.3;3.2;2.4
53698;PMS7003;39591;53.952;27.612;2023-02-21T14:36:36;5.1;3.3;2.8
53698;PMS7003;39591;53.952;27.612;2023-02-21T14:41:12;6.4;5;3.9
53698;PMS7003;39591;53.952;27.612;2023-02-21T14:46:40;5.2;4.2;3.2
53698;PMS7003;39591;53.952;27.612;2023-02-21T14:51:30;5.9;5;3.9
53698;PMS7003;39591;53.952;27.612;2023-02-21T14:57:06;4.6;3;2.5
53698;PMS7003;39591;53.952;27.612;2023-02-21T15:01:26;5.9;4.6;3.8
53698;PMS7003;39591;53.952;27.612;2023-02-21T15:06:32;4.3;3.2;2.2
53698;PMS7003;39591;53.952;27.612;2023-02-21T15:11:33;5.5;4.8;4
53698;PMS7003;39591;53.952;27.612;2023-02-21T15:16:45;6;4.3;3.6
53698;PMS7003;39591;53.952;27.612;2023-02-21T15:22:17;4.5;3.9;2.8
53698;PMS7003;39591;53.952;27.612;2023-02-21T15:26:46;6.6;4.5;3.4
53698;PMS7003;39591;53.952;27.612;2023-02-21T15:31:22;5.1;3.6;3.1
53698;PMS7003;39591;53.952;27.612;2023-02-21T15:36:34;6.5;5.5;4.2
53698;PMS7003;39591;53.952;27.612;2023-02-21T15:41:47;4.7;4.4;3.8
53698;PMS7003;39591;53.952;27.612;2023-02-21T15:47:03;7.5;5.8;4.6
53698;PMS7003;39591;53.952;27.612;2023-02-21T15:51:32;7.9;5.8;4.5
53698;PMS7003;39591;53.952;27.612;2023-02-21T15:56:18;6.9;5.6;4.6
53698;PMS7003;39591;53.952;27.612;2023-02-21T16:01:32;8;6.4;5.3
53698;PMS7003;39591;53.952;27.612;2023-02-21T16:07:03;6.2;4.6;3.6
53698;PMS7003;39591;53.952;27.612;2023-02-21T16:12:03;6.2;4.7;3.7
53698;PMS7003;39591;53.952;27.612;2023-02-21T16:16:34;6.8;5.6;4.4
53698;PMS7003;39591;53.952;27.612;2023-02-21T16:21:21;9;7.2;5.3
53698;PMS7003;39591;53.952;27.612;2023-02-21T16:26:34;8.3;6.8;5.4
53698;PMS7003;39591;53.952;27.612;2023-02-21T16:31:44;7.9;6.3;4.7
53698;PMS7003;39591;53.952;27.612;2023-02-21T16:37:03;7.4;6.7;5.1
53698;PMS7003;39591;53.952;27.612;2023-02-21T16:41:34;8.8;6.5;4.8
53698;PMS7003;39591;53.952;27.612;2023-02-21T16:46:22;8.6;7.1;5.3
53698;PMS7003;39591;53.952;27.612;2023-02-21T16:51:22;5;3.5;2.9
53698;PMS7003;39591;53.952;27.612;2023-02-21T16:56:45;6.6;5.6;4.1
53698;PMS7003;39591;53.952;27.612;2023-02-21T17:02:00;8.3;5.7;4.7
53698;PMS7003;39591;53.952;27.612;2023-02-21T17:07:01;6.5;5;4
53698;PMS7003;39591;53.952;27.612;2023-02-21T17:11:08;7.9;6.2;4.9
53698;PMS7003;39591;53.952;27.612;2023-02-21T17:16:08;8.3;6;4.5
53698;PMS7003;39591;53.952;27.612;2023-02-21T17:21:46;7.2;5;3.9
53698;PMS7003;39591;53.952;27.612;2023-02-21T17:27:00;7.9;6.2;4.3
53698;PMS7003;39591;53.952;27.612;2023-02-21T17:32:03;7.6;5.9;4.6
53698;PMS7003;39591;53.952;27.612;2023-02-21T17:36:10;7.7;5.9;4.8
53698;PMS7003;39591;53.952;27.612;2023-02-21T17:41:08;6.9;4.5;3.7
53698;PMS7003;39591;53.952;27.612;2023-02-21T17:46:46;5.5;4.5;3.2
53698;PMS7003;39591;53.952;27.612;2023-02-21T17:52:02;6.3;4.9;3.5
53698;PMS7003;39591;53.952;27.612;2023-02-21T17:56:46;9.6;7.1;5.5
53698;PMS7003;39591;53.952;27.612;2023-02-21T18:01:18;8;5.5;4.2
53698;PMS7003;39591;53.952;27.612;2023-02-21T18:06:18;6.9;5.2;4.1
53698;PMS7003;39591;53.952;27.612;2023-02-21T18:11:47;6.6;5.5;4.3
53698;PMS7003;39591;53.952;27.612;2023-02-21T18:17:02;5.7;3.8;2.9
53698;PMS7003;39591;53.952;27.612;2023-02-21T18:22:02;5.7;4;2.7
53698;PMS7003;39591;53.952;27.612;2023-02-21T18:26:32;3.9;2.8;2
53698;PMS7003;39591;53.952;27.612;2023-02-21T18:31:36;3.4;2.3;1.5
53698;PMS7003;39591;53.952;27.612;2023-02-21T18:36:20;4.4;3;2.3
53698;PMS7003;39591;53.952;27.612;2023-02-21T18:42:02;5;3.5;2.7
53698;PMS7003;39591;53.952;27.612;2023-02-21T18:46:30;5.4;3.4;2.9
53698;PMS7003;39591;53.952;27.612;2023-02-21T18:51:34;5;3.2;2.5
53698;PMS7003;39591;53.952;27.612;2023-02-21T18:56:34;5.6;4;3.1
53698;PMS7003;39591;53.952;27.612;2023-02-21T19:01:46;5.5;3.6;3.1
53698;PMS7003;39591;53.952;27.612;2023-02-21T19:07:04;6.1;4.3;3.5
53698;PMS7003;39591;53.952;27.612;2023-02-21T19:11:26;5.3;3.1;2.2
53698;PMS7003;39591;53.952;27.612;2023-02-21T19:16:48;5.7;4.1;3.1
53698;PMS7003;39591;53.952;27.612;2023-02-21T19:21:50;7;5.1;3.3
53698;PMS7003;39591;53.952;27.612;2023-02-21T19:26:36;5.5;3.5;2.6
53698;PMS7003;39591;53.952;27.612;2023-02-21T19:31:42;4.8;3.6;2.7
53698;PMS7003;39591;53.952;27.612;2023-02-21T19:37:02;4.6;3.4;2.4
53698;PMS7003;39591;53.952;27.612;2023-02-21T19:41:34;4.4;3.7;2.8
53698;PMS7003;39591;53.952;27.612;2023-02-21T19:46:35;4.3;3.4;2.7
53698;PMS7003;39591;53.952;27.612;2023-02-21T19:51:19;4.7;3.5;2.9
53698;PMS7003;39591;53.952;27.612;2023-02-21T19:56:44;4.8;3.6;2.7
53698;PMS7003;39591;53.952;27.612;2023-02-21T20:02:00;6.2;3.9;3.2
53698;PMS7003;39591;53.952;27.612;2023-02-21T20:06:08;5.7;4.5;3.4
53698;PMS7003;39591;53.952;27.612;2023-02-21T20:11:34;5.2;4.3;3.3
53698;PMS7003;39591;53.952;27.612;2023-02-21T20:16:22;4.6;3.2;2.5
53698;PMS7003;39591;53.952;27.612;2023-02-21T20:21:44;5.9;3.9;3
53698;PMS7003;39591;53.952;27.612;2023-02-21T20:26:48;5.6;4.7;3.6
53698;PMS7003;39591;53.952;27.612;2023-02-21T20:31:21;4.6;3.5;2.4
53698;PMS7003;39591;53.952;27.612;2023-02-21T20:36:08;4.6;3.5;2.6
53698;PMS7003;39591;53.952;27.612;2023-02-21T20:41:35;4.4;3.1;2.2
53698;PMS7003;39591;53.952;27.612;2023-02-21T20:46:08;5.1;3.6;2.6
53698;PMS7003;39591;53.952;27.612;2023-02-21T20:52:04;5.1;3.4;2.7
53698;PMS7003;39591;53.952;27.612;2023-02-21T20:56:18;4.7;3.6;2.4
53698;PMS7003;39591;53.952;27.612;2023-02-21T21:01:36;5.6;4.1;3.1
53698;PMS7003;39591;53.952;27.612;2023-02-21T21:06:08;5.4;4.2;3.4
53698;PMS7003;39591;53.952;27.612;2023-02-21T21:11:46;5.6;3.9;2.8
53698;PMS7003;39591;53.952;27.612;2023-02-21T21:16:48;5.4;4.2;3.1
53698;PMS7003;39591;53.952;27.612;2023-02-21T21:21:26;5.3;3.4;2.8
53698;PMS7003;39591;53.952;27.612;2023-02-21T21:26:48;4.1;3.1;2.3
53698;PMS7003;39591;53.952;27.612;2023-02-21T21:31:08;4.6;3.4;2.7
53698;PMS7003;39591;53.952;27.612;2023-02-21T21:36:44;5.3;4.2;3.2
53698;PMS7003;39591;53.952;27.612;2023-02-21T21:42:07;4.5;3.5;2.8
53698;PMS7003;39591;53.952;27.612;2023-02-21T21:46:36;4.9;3.4;2.4
53698;PMS7003;39591;53.952;27.612;2023-02-21T21:51:25;4.1;2.5;1.9
53698;PMS7003;39591;53.952;27.612;2023-02-21T21:56:34;4.9;3.2;2.5
53698;PMS7003;39591;53.952;27.612;2023-02-21T22:02:02;4.8;2.8;1.9
53698;PMS7003;39591;53.952;27.612;2023-02-21T22:07:02;4.5;3.4;2.7
53698;PMS7003;39591;53.952;27.612;2023-02-21T22:11:22;5;3.4;2.6
53698;PMS7003;39591;53.952;27.612;2023-02-21T22:16:34;3.3;2.4;1.6
53698;PMS7003;39591;53.952;27.612;2023-02-21T22:21:32;4.4;2.7;1.9
53698;PMS7003;39591;53.952;27.612;2023-02-21T22:26:46;2.8;1.7;1.1
53698;PMS7003;39591;53.952;27.612;2023-02-21T22:32:02;4.4;2.6;1.7
53698;PMS7003;39591;53.952;27.612;2023-02-21T22:36:18;3.6;2.7;1.9
53698;PMS7003;39591;53.952;27.612;2023-02-21T22:41:36;3.9;2.5;1.8
53698;PMS7003;39591;53.952;27.612;2023-02-21T22:46:19;3.7;2.6;1.7
53698;PMS7003;39591;53.952;27.612;2023-02-21T22:51:34;3.6;2.4;1.9
53698;PMS7003;39591;53.952;27.612;2023-02-21T22:57:00;3.2;2.1;1.4
53698;PMS7003;39591;53.952;27.612;2023-02-21T23:01:25;3.9;2.4;1.8
53698;PMS7003;39591;53.952;27.612;2023-02-21T23:06:34;3.1;2.2;1.6
53698;PMS7003;39591;53.952;27.612;2023-02-21T23:11:08;3.6;1.8;1.3
53698;PMS7003;39591;53.952;27.612;2023-02-21T23:16:53;4.2;2.4;1.7
53698;PMS7003;39591;53.952;27.612;2023-02-21T23:22:02;3;2;1.2
53698;PMS7003;39591;53.952;27.612;2023-02-21T23:26:34;4;2.4;1.7
53698;PMS7003;39591;53.952;27.612;2023-02-21T23:31:08;2.7;1.9;1.3
53698;PMS7003;39591;53.952;27.612;2023-02-21T23:36:24;3.7;1.9;1.1
53698;PMS7003;39591;53.952;27.612;2023-02-21T23:41:32;3;1.7;1.3
53698;PMS7003;39591;53.952;27.612;2023-02-21T23:47:02;3;1.9;1.4
53698;PMS7003;39591;53.952;27.612;2023-02-21T23:51:46;3.4;2.6;1.9
53698;PMS7003;39591;53.952;27.612;2023-02-21T23:56:34;2.8;1.5;1
